Time;durP1;ratioP1;P1;durP2;ratioP2;P2;SDS_P1;SDS_P2;PMS_P1;PMS_P2;Temp;Humidity;BMP_temperature;BMP_pressure;BME280_temperature;BME280_humidity;BME280_pressure;Samples;Min_cycle;Max_cycle;Signal;HPM_P1;HPM_P2
2023/12/21 00:00:33;;;;;;;;;;;6.20;99.90;;;;;;5028287;28;19990;-88
2023/12/21 00:02:59;;;;;;;;;;;6.20;99.90;;;;;;5033173;28;19916;-93
2023/12/21 00:05:25;;;;;;;;;;;6.20;99.90;;;;;;5035717;28;19959;-90
2023/12/21 00:07:50;;;;;;;;;;;6.20;99.90;;;;;;5045282;28;19905;-91
2023/12/21 00:10:16;;;;;;;;;;;6.20;99.90;;;;;;5036074;28;19917;-89
2023/12/21 00:12:41;;;;;;;;;;;6.00;99.90;;;;;;5032804;28;19913;-89
2023/12/21 00:15:08;;;;;;;;;;;6.10;99.90;;;;;;5030750;28;19916;-91
2023/12/21 00:17:33;;;;;;;;;;;6.00;99.90;;;;;;5046362;28;19913;-88
2023/12/21 00:19:59;;;;;;;;;;;6.10;99.90;;;;;;5029431;28;20725;-91
2023/12/21 00:22:24;;;;;;;;;;;6.00;99.90;;;;;;5035307;28;19920;-89
2023/12/21 00:24:50;;;;;;;;;;;6.00;99.90;;;;;;5032936;28;20485;-89
2023/12/21 00:27:15;;;;;;;;;;;6.10;99.90;;;;;;5049359;28;19916;-90
2023/12/21 00:29:41;;;;;;;;;;;6.00;99.90;;;;;;5031929;28;19917;-91
2023/12/21 00:32:06;;;;;;;;;;;6.10;99.90;;;;;;5040012;28;20655;-90
2023/12/21 00:34:32;;;;;;;;;;;6.00;99.90;;;;;;5056812;28;19920;-91
2023/12/21 00:36:58;;;;;;;;;;;6.10;99.90;;;;;;5044683;28;19909;-90
2023/12/21 00:39:24;;;;;;;;;;;6.20;99.90;;;;;;5037821;28;19913;-91
2023/12/21 00:41:50;;;;;;;;;;;6.10;99.90;;;;;;5054405;28;19976;-89
2023/12/21 00:44:15;;;;;;;;;;;6.20;99.90;;;;;;5036643;28;20690;-89
2023/12/21 00:46:41;;;;;;;;;;;6.20;99.90;;;;;;5037225;28;19940;-89
2023/12/21 00:49:06;;;;;;;;;;;6.20;99.90;;;;;;5038008;28;19970;-89
2023/12/21 00:51:32;;;;;;;;;;;6.10;99.90;;;;;;5034016;28;19922;-87
2023/12/21 00:53:58;;;;;;;;;;;6.10;99.90;;;;;;5034710;28;19912;-87
2023/12/21 00:56:23;;;;;;;;;;;6.20;99.90;;;;;;5033118;28;19916;-87
2023/12/21 00:58:49;;;;;;;;;;;6.20;99.90;;;;;;5038049;28;19944;-87
2023/12/21 01:01:14;;;;;;;;;;;6.30;99.90;;;;;;5049903;28;20007;-87
2023/12/21 01:03:40;;;;;;;;;;;6.30;99.90;;;;;;5050916;28;19919;-89
2023/12/21 01:06:05;;;;;;;;;;;6.30;99.90;;;;;;5033294;28;20027;-89
2023/12/21 01:08:31;;;;;;;;;;;6.30;99.90;;;;;;5033308;28;19951;-89
2023/12/21 01:10:56;;;;;;;;;;;6.30;99.90;;;;;;5048595;28;19962;-86
2023/12/21 01:13:22;;;;;;;;;;;6.30;99.90;;;;;;5036858;28;19920;-87
2023/12/21 01:15:47;;;;;;;;;;;6.40;99.90;;;;;;5031829;28;20413;-86
2023/12/21 01:18:13;;;;;;;;;;;6.30;99.90;;;;;;5033469;28;19919;-87
2023/12/21 01:20:39;;;;;;;;;;;6.20;99.90;;;;;;5047856;28;19974;-86
2023/12/21 01:23:04;;;;;;;;;;;6.40;99.90;;;;;;5031318;28;20409;-85
2023/12/21 01:25:30;;;;;;;;;;;6.40;99.90;;;;;;5031282;28;19913;-85
2023/12/21 01:27:55;;;;;;;;;;;6.40;99.90;;;;;;5050758;28;19917;-85
2023/12/21 01:30:23;;;;;;;;;;;6.30;99.90;;;;;;5050000;28;19916;-85
2023/12/21 01:32:49;;;;;;;;;;;6.30;99.90;;;;;;5031751;28;19924;-85
2023/12/21 01:35:14;;;;;;;;;;;6.40;99.90;;;;;;5033574;28;19942;-86
2023/12/21 01:37:40;;;;;;;;;;;6.40;99.90;;;;;;5049388;28;20695;-84
2023/12/21 01:40:06;;;;;;;;;;;6.40;99.90;;;;;;5064536;28;19951;-85
2023/12/21 01:42:31;;;;;;;;;;;6.40;99.90;;;;;;5048598;28;19912;-85
2023/12/21 01:44:57;;;;;;;;;;;6.30;99.90;;;;;;5030473;28;19920;-86
2023/12/21 01:47:22;;;;;;;;;;;6.40;99.90;;;;;;5047596;28;19916;-86
2023/12/21 01:49:48;;;;;;;;;;;6.40;99.90;;;;;;5048046;28;19916;-87
2023/12/21 01:52:14;;;;;;;;;;;6.40;99.90;;;;;;5030772;28;19920;-87
2023/12/21 01:54:40;;;;;;;;;;;6.40;99.90;;;;;;5030763;28;19923;-86
2023/12/21 01:57:05;;;;;;;;;;;6.40;99.90;;;;;;5027685;28;20020;-87
2023/12/21 01:59:31;;;;;;;;;;;6.40;99.90;;;;;;5043582;28;20398;-87
2023/12/21 02:01:56;;;;;;;;;;;6.40;99.90;;;;;;5028118;28;19913;-85
2023/12/21 02:04:22;;;;;;;;;;;6.50;99.90;;;;;;5047997;28;19927;-86
2023/12/21 02:06:48;;;;;;;;;;;6.60;99.90;;;;;;5048445;28;19920;-87
2023/12/21 02:09:13;;;;;;;;;;;6.60;99.90;;;;;;5030623;28;20035;-87
2023/12/21 02:11:39;;;;;;;;;;;6.70;99.90;;;;;;5058613;28;19997;-87
2023/12/21 02:14:05;;;;;;;;;;;6.50;99.90;;;;;;5031221;28;20272;-85
2023/12/21 02:17:02;;;;;;;;;;;6.50;99.90;;;;;;5048211;28;19962;-84
2023/12/21 02:19:28;;;;;;;;;;;6.50;99.90;;;;;;5027433;28;19982;-83
2023/12/21 02:21:55;;;;;;;;;;;6.60;99.90;;;;;;5047174;28;19955;-85
2023/12/21 02:24:20;;;;;;;;;;;6.60;99.90;;;;;;5030921;28;19912;-86
2023/12/21 02:26:46;;;;;;;;;;;6.50;99.90;;;;;;5047566;28;19916;-86
2023/12/21 02:29:11;;;;;;;;;;;6.40;99.90;;;;;;5030449;28;19921;-86
2023/12/21 02:31:37;;;;;;;;;;;6.40;99.90;;;;;;5045919;28;19965;-86
2023/12/21 02:34:05;;;;;;;;;;;6.50;99.90;;;;;;5048244;28;19912;-85
2023/12/21 02:36:31;;;;;;;;;;;6.40;99.90;;;;;;5048126;28;19912;-85
2023/12/21 02:38:56;;;;;;;;;;;6.40;99.90;;;;;;5030660;28;19908;-87
2023/12/21 02:41:22;;;;;;;;;;;6.50;99.90;;;;;;5028125;28;19952;-88
2023/12/21 02:43:47;;;;;;;;;;;6.50;99.90;;;;;;5029580;28;19943;-86
2023/12/21 02:46:13;;;;;;;;;;;6.40;99.90;;;;;;5030834;28;20763;-86
2023/12/21 02:48:38;;;;;;;;;;;6.50;99.90;;;;;;5048588;28;19919;-85
2023/12/21 02:51:04;;;;;;;;;;;6.40;99.90;;;;;;5049715;28;19923;-86
2023/12/21 02:53:29;;;;;;;;;;;6.50;99.90;;;;;;5049099;28;19919;-87
2023/12/21 02:55:55;;;;;;;;;;;6.50;99.90;;;;;;5029769;28;19948;-87
2023/12/21 02:58:20;;;;;;;;;;;6.60;99.90;;;;;;5048630;28;19919;-89
2023/12/21 03:00:46;;;;;;;;;;;6.60;99.90;;;;;;5031286;28;19912;-88
2023/12/21 03:03:11;;;;;;;;;;;6.60;99.90;;;;;;5031319;28;19999;-86
2023/12/21 03:05:37;;;;;;;;;;;6.60;99.90;;;;;;5029262;28;19983;-85
2023/12/21 03:08:03;;;;;;;;;;;6.60;99.90;;;;;;5048497;28;19947;-86
2023/12/21 03:10:29;;;;;;;;;;;6.60;99.90;;;;;;5034409;28;19920;-87
2023/12/21 03:12:54;;;;;;;;;;;6.60;99.90;;;;;;5030285;28;19917;-87
2023/12/21 03:15:20;;;;;;;;;;;6.50;99.90;;;;;;5029035;28;20424;-87
2023/12/21 03:17:45;;;;;;;;;;;6.50;99.90;;;;;;5047463;28;19960;-86
2023/12/21 03:20:11;;;;;;;;;;;6.50;99.90;;;;;;5030714;28;20392;-88
2023/12/21 03:22:37;;;;;;;;;;;6.50;99.90;;;;;;5029940;28;19908;-87
2023/12/21 03:25:02;;;;;;;;;;;6.50;99.90;;;;;;5046990;28;20443;-86
2023/12/21 03:27:28;;;;;;;;;;;6.50;99.90;;;;;;5046644;28;19913;-87
2023/12/21 03:29:53;;;;;;;;;;;6.50;99.90;;;;;;5046287;28;19917;-85
2023/12/21 03:32:19;;;;;;;;;;;6.50;99.90;;;;;;5029554;28;20333;-85
2023/12/21 03:34:44;;;;;;;;;;;6.50;99.90;;;;;;5028654;28;20045;-85
2023/12/21 03:37:10;;;;;;;;;;;6.60;99.90;;;;;;5029390;28;19913;-86
2023/12/21 03:39:36;;;;;;;;;;;6.50;99.90;;;;;;5028482;28;19916;-86
2023/12/21 03:42:02;;;;;;;;;;;6.60;99.90;;;;;;5028744;28;19916;-85
2023/12/21 03:44:28;;;;;;;;;;;6.60;99.90;;;;;;5029153;28;19912;-84
2023/12/21 03:46:53;;;;;;;;;;;6.60;99.90;;;;;;5028969;28;21656;-87
2023/12/21 03:49:19;;;;;;;;;;;6.60;99.90;;;;;;5029505;28;19917;-87
2023/12/21 03:51:44;;;;;;;;;;;6.60;99.90;;;;;;5048369;28;19912;-89
2023/12/21 03:54:10;;;;;;;;;;;6.70;99.90;;;;;;5026802;28;20403;-89
2023/12/21 03:56:39;;;;;;;;;;;6.60;99.90;;;;;;5029923;28;20031;-91
2023/12/21 03:59:05;;;;;;;;;;;6.70;99.90;;;;;;5046522;28;19998;-89
2023/12/21 04:16:08;;;;;;;;;;;6.60;99.90;;;;;;5043555;28;19924;-86
2023/12/21 04:18:33;;;;;;;;;;;6.70;99.90;;;;;;5033978;28;19939;-87
2023/12/21 04:20:59;;;;;;;;;;;6.70;99.90;;;;;;5029864;28;19916;-87
2023/12/21 04:23:25;;;;;;;;;;;6.70;99.90;;;;;;5048930;28;19919;-87
2023/12/21 04:25:50;;;;;;;;;;;6.60;99.90;;;;;;5044647;28;20541;-86
2023/12/21 04:28:16;;;;;;;;;;;6.60;99.90;;;;;;5047815;28;20030;-86
2023/12/21 04:30:41;;;;;;;;;;;6.60;99.90;;;;;;5028684;28;19959;-86
2023/12/21 04:33:07;;;;;;;;;;;6.60;99.90;;;;;;5049781;28;19955;-85
2023/12/21 04:35:33;;;;;;;;;;;6.60;99.90;;;;;;5046570;28;19912;-88
2023/12/21 04:37:59;;;;;;;;;;;6.60;99.90;;;;;;5033309;28;19913;-88
2023/12/21 04:40:24;;;;;;;;;;;6.60;99.90;;;;;;5049352;28;19913;-87
2023/12/21 04:42:55;;;;;;;;;;;6.60;99.90;;;;;;5037252;28;20797;-91
2023/12/21 04:45:21;;;;;;;;;;;6.70;99.90;;;;;;5039345;28;19912;-89
2023/12/21 04:47:46;;;;;;;;;;;6.70;99.90;;;;;;5036879;28;19912;-87
2023/12/21 04:50:12;;;;;;;;;;;6.70;99.90;;;;;;5029392;28;19966;-86
2023/12/21 04:52:37;;;;;;;;;;;6.60;99.90;;;;;;5027626;28;20000;-86
2023/12/21 04:55:03;;;;;;;;;;;6.80;99.90;;;;;;5030239;28;20011;-87
2023/12/21 04:57:29;;;;;;;;;;;6.70;99.90;;;;;;5058313;28;20019;-86
2023/12/21 04:59:54;;;;;;;;;;;6.60;99.90;;;;;;5031692;28;20218;-87
2023/12/21 05:02:20;;;;;;;;;;;6.60;99.90;;;;;;5046144;28;19912;-86
2023/12/21 05:04:45;;;;;;;;;;;6.70;99.90;;;;;;5028996;28;19961;-87
2023/12/21 05:07:11;;;;;;;;;;;6.70;99.90;;;;;;5032046;28;19989;-85
2023/12/21 05:09:36;;;;;;;;;;;6.70;99.90;;;;;;5028268;28;19916;-86
2023/12/21 05:12:03;;;;;;;;;;;6.80;99.90;;;;;;5032105;28;19912;-88
2023/12/21 05:14:28;;;;;;;;;;;6.70;99.90;;;;;;5046020;28;20430;-88
2023/12/21 05:16:54;;;;;;;;;;;6.80;99.90;;;;;;5029303;28;20058;-88
2023/12/21 05:19:19;;;;;;;;;;;6.80;99.90;;;;;;5031438;28;19913;-88
2023/12/21 05:21:45;;;;;;;;;;;6.80;99.90;;;;;;5039218;28;19919;-86
2023/12/21 05:24:10;;;;;;;;;;;6.70;99.90;;;;;;5035980;28;19913;-86
2023/12/21 05:26:36;;;;;;;;;;;6.80;99.90;;;;;;5040064;28;19912;-88
2023/12/21 05:29:02;;;;;;;;;;;6.90;99.90;;;;;;5032619;28;19966;-85
2023/12/21 05:31:27;;;;;;;;;;;6.80;99.90;;;;;;5032420;28;19925;-88
2023/12/21 05:33:53;;;;;;;;;;;6.90;99.90;;;;;;5036290;28;19913;-88
2023/12/21 05:36:19;;;;;;;;;;;6.80;99.90;;;;;;5033101;28;20290;-87
2023/12/21 05:38:45;;;;;;;;;;;6.90;99.90;;;;;;5051282;28;19912;-86
2023/12/21 05:41:10;;;;;;;;;;;6.90;99.90;;;;;;5050720;28;19916;-89
2023/12/21 05:43:37;;;;;;;;;;;6.90;99.90;;;;;;5034840;28;19972;-88
2023/12/21 05:46:03;;;;;;;;;;;6.90;99.90;;;;;;5035303;28;19931;-90
2023/12/21 05:48:29;;;;;;;;;;;6.90;99.90;;;;;;5053661;28;19919;-89
2023/12/21 05:50:55;;;;;;;;;;;7.00;99.90;;;;;;5051844;28;19921;-96
2023/12/21 05:53:21;;;;;;;;;;;6.90;99.90;;;;;;5041263;28;20015;-93
2023/12/21 05:55:46;;;;;;;;;;;6.90;99.90;;;;;;5033893;28;19912;-84
2023/12/21 05:58:12;;;;;;;;;;;7.00;99.90;;;;;;5037069;28;20632;-84
2023/12/21 06:00:37;;;;;;;;;;;6.90;99.90;;;;;;5038123;28;20608;-94
2023/12/21 06:03:03;;;;;;;;;;;6.90;99.90;;;;;;5035700;28;19912;-91
2023/12/21 06:05:29;;;;;;;;;;;6.90;99.90;;;;;;5033277;28;19920;-86
2023/12/21 06:07:54;;;;;;;;;;;7.00;99.90;;;;;;5031502;28;20629;-86
2023/12/21 06:10:20;;;;;;;;;;;7.00;99.90;;;;;;5048656;28;20023;-86
2023/12/21 06:12:45;;;;;;;;;;;7.00;99.90;;;;;;5049867;28;20359;-87
2023/12/21 06:15:11;;;;;;;;;;;6.90;99.90;;;;;;5047933;28;19970;-87
2023/12/21 06:17:36;;;;;;;;;;;7.00;99.90;;;;;;5048970;28;19924;-88
2023/12/21 06:20:02;;;;;;;;;;;7.00;99.90;;;;;;5045526;28;19913;-85
2023/12/21 06:22:28;;;;;;;;;;;7.00;99.90;;;;;;5049478;28;19908;-94
2023/12/21 06:24:54;;;;;;;;;;;7.10;99.90;;;;;;5031988;28;19962;-83
2023/12/21 06:27:19;;;;;;;;;;;7.10;99.90;;;;;;5047597;28;19913;-83
2023/12/21 06:29:45;;;;;;;;;;;7.00;99.90;;;;;;5047458;28;19916;-88
2023/12/21 06:32:10;;;;;;;;;;;7.10;99.90;;;;;;5047711;28;19978;-86
2023/12/21 06:34:36;;;;;;;;;;;7.10;99.90;;;;;;5030063;28;19917;-85
2023/12/21 06:37:05;;;;;;;;;;;7.00;99.90;;;;;;5030996;28;19939;-84
2023/12/21 06:39:33;;;;;;;;;;;7.10;99.90;;;;;;5029855;28;19950;-81
2023/12/21 06:41:59;;;;;;;;;;;7.20;99.90;;;;;;5030223;28;19919;-83
2023/12/21 06:44:26;;;;;;;;;;;7.20;99.90;;;;;;5047709;28;20781;-82
2023/12/21 06:46:51;;;;;;;;;;;7.10;99.90;;;;;;5029734;28;19955;-83
2023/12/21 06:49:17;;;;;;;;;;;7.10;99.90;;;;;;5063254;28;20424;-81
2023/12/21 06:51:44;;;;;;;;;;;7.20;99.90;;;;;;5030532;28;19913;-87
2023/12/21 06:54:10;;;;;;;;;;;7.20;99.90;;;;;;5029591;28;19979;-86
2023/12/21 06:56:36;;;;;;;;;;;7.20;99.90;;;;;;5041767;28;19948;-83
2023/12/21 06:59:02;;;;;;;;;;;7.20;99.90;;;;;;5045968;28;19912;-83
2023/12/21 07:01:28;;;;;;;;;;;7.20;99.90;;;;;;5031068;28;19943;-81
2023/12/21 07:03:54;;;;;;;;;;;7.20;99.90;;;;;;5047836;28;19913;-87
2023/12/21 07:06:20;;;;;;;;;;;7.20;99.90;;;;;;5047648;28;20683;-80
2023/12/21 07:08:46;;;;;;;;;;;7.20;99.90;;;;;;5047410;28;19917;-81
2023/12/21 07:11:12;;;;;;;;;;;7.20;99.90;;;;;;5030612;28;20331;-81
2023/12/21 07:13:38;;;;;;;;;;;7.30;99.90;;;;;;5047600;28;19986;-80
2023/12/21 07:16:03;;;;;;;;;;;7.30;99.90;;;;;;5042936;28;19919;-82
2023/12/21 07:18:29;;;;;;;;;;;7.30;99.90;;;;;;5047626;28;19909;-82
2023/12/21 07:20:55;;;;;;;;;;;7.30;99.90;;;;;;5047559;28;20398;-81
2023/12/21 07:23:20;;;;;;;;;;;7.30;99.90;;;;;;5048885;28;20003;-81
2023/12/21 07:25:47;;;;;;;;;;;7.30;99.90;;;;;;5047921;28;20383;-80
2023/12/21 07:28:15;;;;;;;;;;;7.30;99.90;;;;;;5047842;28;19905;-81
2023/12/21 07:30:41;;;;;;;;;;;7.30;99.90;;;;;;5047157;28;20372;-79
2023/12/21 07:33:07;;;;;;;;;;;7.40;99.90;;;;;;5047138;28;19986;-81
2023/12/21 07:35:32;;;;;;;;;;;7.40;99.90;;;;;;5046637;28;19913;-81
2023/12/21 07:37:58;;;;;;;;;;;7.40;99.90;;;;;;5030067;28;19970;-79
2023/12/21 07:40:23;;;;;;;;;;;7.40;99.90;;;;;;5046517;28;19950;-81
2023/12/21 07:42:49;;;;;;;;;;;7.40;99.90;;;;;;5046860;28;19947;-80
2023/12/21 07:45:14;;;;;;;;;;;7.40;99.90;;;;;;5046654;28;19948;-81
2023/12/21 07:47:40;;;;;;;;;;;7.40;99.90;;;;;;5046971;28;19943;-79
2023/12/21 07:50:06;;;;;;;;;;;7.40;99.90;;;;;;5047014;28;20015;-81
2023/12/21 07:52:31;;;;;;;;;;;7.40;99.90;;;;;;5047183;28;19912;-81
2023/12/21 07:54:57;;;;;;;;;;;7.50;99.90;;;;;;5060225;28;20725;-80
2023/12/21 07:57:23;;;;;;;;;;;7.50;99.90;;;;;;5044989;28;19909;-80
2023/12/21 07:59:49;;;;;;;;;;;7.50;99.90;;;;;;5029267;28;20746;-79
2023/12/21 08:02:14;;;;;;;;;;;7.50;99.90;;;;;;5027382;28;20023;-82
2023/12/21 08:04:40;;;;;;;;;;;7.60;99.90;;;;;;5046357;28;19909;-80
2023/12/21 08:07:06;;;;;;;;;;;7.50;99.90;;;;;;5034416;28;19924;-81
2023/12/21 08:09:32;;;;;;;;;;;7.60;99.90;;;;;;5030306;28;19923;-85
2023/12/21 08:11:57;;;;;;;;;;;7.60;99.90;;;;;;5046880;28;20412;-84
2023/12/21 08:14:26;;;;;;;;;;;7.60;99.90;;;;;;5047291;28;19909;-85
2023/12/21 08:16:53;;;;;;;;;;;7.60;99.90;;;;;;5028592;28;19952;-83
2023/12/21 08:19:19;;;;;;;;;;;7.70;99.90;;;;;;5028596;28;19915;-82
2023/12/21 08:21:44;;;;;;;;;;;7.60;99.90;;;;;;5046391;28;20027;-84
2023/12/21 08:24:10;;;;;;;;;;;7.60;99.90;;;;;;5034627;28;20619;-85
2023/12/21 08:26:35;;;;;;;;;;;7.70;99.90;;;;;;5038068;28;19916;-83
2023/12/21 08:29:01;;;;;;;;;;;7.70;99.90;;;;;;5048221;28;20384;-83
2023/12/21 08:31:27;;;;;;;;;;;7.70;99.90;;;;;;5047198;28;20407;-83
2023/12/21 08:33:53;;;;;;;;;;;7.70;99.90;;;;;;5047331;28;20019;-83
2023/12/21 08:36:18;;;;;;;;;;;7.80;99.90;;;;;;5031005;28;20023;-84
2023/12/21 08:38:44;;;;;;;;;;;7.80;99.90;;;;;;5046357;28;19916;-81
2023/12/21 08:41:10;;;;;;;;;;;7.80;99.90;;;;;;5028871;28;19909;-81
2023/12/21 08:43:36;;;;;;;;;;;7.90;99.90;;;;;;5035045;28;19992;-82
2023/12/21 08:46:02;;;;;;;;;;;7.90;99.90;;;;;;5032877;28;19963;-84
2023/12/21 08:48:27;;;;;;;;;;;7.90;99.90;;;;;;5033546;28;19952;-81
2023/12/21 08:50:53;;;;;;;;;;;8.00;99.90;;;;;;5046489;28;20007;-81
2023/12/21 08:53:19;;;;;;;;;;;8.00;99.90;;;;;;5047256;28;19909;-80
2023/12/21 08:55:44;;;;;;;;;;;8.00;99.90;;;;;;5049554;28;19912;-81
2023/12/21 08:58:10;;;;;;;;;;;8.00;99.90;;;;;;5064811;28;19913;-82
2023/12/21 09:00:36;;;;;;;;;;;8.00;99.90;;;;;;5050012;28;19935;-82
2023/12/21 09:03:01;;;;;;;;;;;8.10;99.90;;;;;;5032401;28;19909;-81
2023/12/21 09:05:27;;;;;;;;;;;8.00;99.90;;;;;;5048706;28;20299;-82
2023/12/21 09:07:52;;;;;;;;;;;8.10;99.90;;;;;;5041273;28;19909;-82
2023/12/21 09:10:18;;;;;;;;;;;8.10;99.90;;;;;;5030755;28;19912;-82
2023/12/21 09:12:43;;;;;;;;;;;8.00;99.90;;;;;;5033082;28;19932;-81
2023/12/21 09:15:09;;;;;;;;;;;8.00;99.90;;;;;;5031636;28;20520;-81
2023/12/21 09:17:35;;;;;;;;;;;8.00;99.90;;;;;;5050484;28;19958;-81
2023/12/21 09:20:01;;;;;;;;;;;8.00;99.90;;;;;;5049653;28;19908;-82
2023/12/21 09:22:26;;;;;;;;;;;8.00;99.90;;;;;;5050425;28;20467;-81
2023/12/21 09:24:52;;;;;;;;;;;8.10;99.90;;;;;;5051141;28;20536;-82
2023/12/21 09:27:17;;;;;;;;;;;8.10;99.90;;;;;;5031098;28;19909;-82
2023/12/21 09:29:43;;;;;;;;;;;8.10;99.90;;;;;;5031524;28;19913;-82
2023/12/21 09:32:09;;;;;;;;;;;8.20;99.90;;;;;;5049872;28;19927;-83
2023/12/21 09:34:34;;;;;;;;;;;8.20;99.90;;;;;;5050075;28;19942;-81
2023/12/21 09:37:01;;;;;;;;;;;8.10;99.90;;;;;;5049761;28;19909;-81
2023/12/21 09:39:29;;;;;;;;;;;8.20;99.90;;;;;;5032121;28;19909;-81
2023/12/21 09:41:55;;;;;;;;;;;8.10;99.90;;;;;;5049995;28;19915;-82
2023/12/21 09:44:21;;;;;;;;;;;8.10;99.90;;;;;;5050929;28;19917;-83
2023/12/21 09:46:48;;;;;;;;;;;8.20;99.90;;;;;;5050729;28;19916;-82
2023/12/21 09:49:16;;;;;;;;;;;8.20;99.90;;;;;;5050256;28;19924;-83
2023/12/21 09:51:44;;;;;;;;;;;8.30;99.90;;;;;;5032171;28;19944;-82
2023/12/21 09:54:10;;;;;;;;;;;8.40;99.90;;;;;;5031607;28;19908;-83
2023/12/21 09:56:36;;;;;;;;;;;8.30;99.90;;;;;;5031683;28;19919;-83
2023/12/21 09:59:03;;;;;;;;;;;8.40;99.90;;;;;;5047715;28;20396;-83
2023/12/21 10:01:29;;;;;;;;;;;8.40;99.90;;;;;;5037215;28;20257;-82
2023/12/21 10:03:54;;;;;;;;;;;8.50;99.90;;;;;;5049143;28;19959;-83
2023/12/21 10:06:20;;;;;;;;;;;8.50;99.90;;;;;;5049242;28;20640;-82
2023/12/21 10:08:45;;;;;;;;;;;8.50;99.90;;;;;;5049493;28;19982;-82
2023/12/21 10:11:11;;;;;;;;;;;8.60;99.90;;;;;;5049991;28;19925;-83
2023/12/21 10:13:37;;;;;;;;;;;8.60;99.90;;;;;;5032042;28;19936;-83
2023/12/21 10:16:03;;;;;;;;;;;8.70;99.90;;;;;;5045113;28;19913;-82
2023/12/21 10:18:29;;;;;;;;;;;8.60;99.90;;;;;;5037253;28;20380;-81
2023/12/21 10:20:55;;;;;;;;;;;8.60;99.90;;;;;;5049237;28;20024;-84
2023/12/21 10:23:21;;;;;;;;;;;8.60;99.90;;;;;;5048980;28;19908;-84
2023/12/21 10:25:47;;;;;;;;;;;8.60;99.90;;;;;;5041083;28;19916;-82
2023/12/21 10:28:12;;;;;;;;;;;8.60;99.90;;;;;;5049097;28;19944;-82
2023/12/21 10:30:38;;;;;;;;;;;8.50;99.90;;;;;;5049152;28;19994;-83
2023/12/21 10:33:04;;;;;;;;;;;8.60;99.90;;;;;;5036823;28;20378;-82
2023/12/21 10:35:29;;;;;;;;;;;8.60;99.90;;;;;;5045070;28;19913;-82
2023/12/21 10:37:55;;;;;;;;;;;8.60;99.90;;;;;;5030425;28;19913;-82
2023/12/21 10:40:23;;;;;;;;;;;8.70;99.90;;;;;;5049075;28;20348;-83
2023/12/21 10:42:49;;;;;;;;;;;8.70;99.90;;;;;;5031656;28;19915;-83
2023/12/21 10:45:21;;;;;;;;;;;8.70;99.90;;;;;;5032828;28;20423;-82
2023/12/21 10:47:49;;;;;;;;;;;8.70;99.90;;;;;;5041423;28;20573;-84
2023/12/21 10:50:15;;;;;;;;;;;8.70;99.90;;;;;;5030411;28;19944;-83
2023/12/21 10:52:41;;;;;;;;;;;8.70;99.90;;;;;;5048533;28;20002;-83
2023/12/21 10:55:10;;;;;;;;;;;8.80;99.90;;;;;;5030797;28;19909;-84
2023/12/21 10:57:38;;;;;;;;;;;8.80;99.90;;;;;;5024873;28;20501;-82
2023/12/21 11:00:04;;;;;;;;;;;8.90;99.90;;;;;;5046890;28;19931;-84
2023/12/21 11:02:30;;;;;;;;;;;8.90;99.90;;;;;;5031696;28;19948;-85
2023/12/21 11:04:56;;;;;;;;;;;9.00;99.90;;;;;;5030755;28;19963;-84
2023/12/21 11:07:22;;;;;;;;;;;8.90;99.90;;;;;;5049015;28;19958;-83
2023/12/21 11:09:48;;;;;;;;;;;8.90;99.90;;;;;;5030664;28;20370;-83
2023/12/21 11:12:13;;;;;;;;;;;9.00;99.90;;;;;;5030087;28;19908;-84
2023/12/21 11:14:39;;;;;;;;;;;9.00;99.90;;;;;;5048147;28;19915;-84
2023/12/21 11:17:08;;;;;;;;;;;9.00;99.90;;;;;;5047799;28;19963;-84
2023/12/21 11:19:35;;;;;;;;;;;9.00;99.90;;;;;;5048362;28;20406;-84
2023/12/21 11:22:01;;;;;;;;;;;9.00;99.90;;;;;;5030175;28;19908;-85
2023/12/21 11:24:26;;;;;;;;;;;9.20;99.90;;;;;;5048550;28;19939;-84
2023/12/21 11:26:52;;;;;;;;;;;9.20;99.90;;;;;;5047667;28;20361;-84
2023/12/21 11:29:21;;;;;;;;;;;9.10;99.90;;;;;;5027983;28;19915;-84
2023/12/21 11:31:47;;;;;;;;;;;9.10;99.90;;;;;;5047450;28;19921;-84
2023/12/21 11:34:19;;;;;;;;;;;9.10;99.90;;;;;;5047898;28;20434;-85
2023/12/21 11:36:46;;;;;;;;;;;9.10;99.90;;;;;;5047533;28;19912;-85
2023/12/21 11:39:14;;;;;;;;;;;9.20;99.90;;;;;;5030093;28;20007;-85
2023/12/21 11:41:59;;;;;;;;;;;9.10;99.90;;;;;;5029317;28;20003;-85
2023/12/21 11:44:33;;;;;;;;;;;9.10;99.90;;;;;;5029313;28;19912;-85
2023/12/21 11:47:00;;;;;;;;;;;9.20;99.90;;;;;;5046286;28;19915;-85
2023/12/21 11:49:25;;;;;;;;;;;9.20;99.90;;;;;;5046806;28;19913;-85
2023/12/21 11:51:51;;;;;;;;;;;9.20;99.90;;;;;;5029727;28;19912;-85
2023/12/21 11:54:18;;;;;;;;;;;9.10;99.90;;;;;;5029016;28;19905;-85
2023/12/21 11:56:43;;;;;;;;;;;9.20;99.90;;;;;;5029240;28;19916;-85
2023/12/21 11:59:09;;;;;;;;;;;9.10;99.90;;;;;;5047279;28;19980;-84
2023/12/21 12:01:35;;;;;;;;;;;9.10;99.90;;;;;;5047192;28;20007;-85
2023/12/21 12:04:00;;;;;;;;;;;9.20;99.90;;;;;;5047346;28;19968;-85
2023/12/21 12:06:27;;;;;;;;;;;9.20;99.90;;;;;;5030079;28;19912;-85
2023/12/21 12:08:53;;;;;;;;;;;9.30;99.90;;;;;;5029415;28;19915;-84
2023/12/21 12:11:18;;;;;;;;;;;9.40;99.90;;;;;;5047765;28;20534;-85
2023/12/21 12:13:44;;;;;;;;;;;9.40;99.90;;;;;;5047277;28;19959;-85
2023/12/21 12:16:10;;;;;;;;;;;9.40;99.90;;;;;;5047384;28;19913;-85
2023/12/21 12:18:36;;;;;;;;;;;9.40;99.90;;;;;;5030362;28;19913;-85
2023/12/21 12:21:02;;;;;;;;;;;9.40;99.90;;;;;;5048204;28;19905;-84
2023/12/21 12:23:28;;;;;;;;;;;9.40;99.90;;;;;;5032520;28;19938;-85
2023/12/21 12:25:53;;;;;;;;;;;9.40;99.90;;;;;;5030016;28;19909;-84
2023/12/21 12:28:21;;;;;;;;;;;9.40;99.90;;;;;;5029075;28;20058;-85
2023/12/21 12:30:48;;;;;;;;;;;9.40;99.90;;;;;;5046706;28;19970;-84
2023/12/21 12:33:13;;;;;;;;;;;9.50;99.90;;;;;;5029021;28;19912;-85
2023/12/21 12:35:40;;;;;;;;;;;9.50;99.90;;;;;;5047175;28;19991;-84
2023/12/21 12:38:06;;;;;;;;;;;9.50;99.90;;;;;;5028377;28;19974;-85
2023/12/21 12:40:33;;;;;;;;;;;9.50;99.90;;;;;;5046229;28;19913;-85
2023/12/21 12:42:59;;;;;;;;;;;9.50;99.90;;;;;;5028487;28;20014;-85
2023/12/21 12:45:24;;;;;;;;;;;9.60;99.90;;;;;;5045955;28;19913;-85
2023/12/21 12:47:52;;;;;;;;;;;9.60;99.90;;;;;;5028448;28;19920;-85
2023/12/21 12:50:20;;;;;;;;;;;9.60;99.90;;;;;;5061490;28;20351;-85
2023/12/21 12:52:45;;;;;;;;;;;9.60;99.90;;;;;;5028722;28;19954;-84
2023/12/21 12:55:11;;;;;;;;;;;9.60;99.90;;;;;;5028041;28;19917;-85
2023/12/21 12:57:42;;;;;;;;;;;9.60;99.90;;;;;;5028747;28;19909;-84
2023/12/21 13:00:10;;;;;;;;;;;9.60;99.90;;;;;;5046057;28;20355;-85
2023/12/21 13:02:35;;;;;;;;;;;9.70;99.90;;;;;;5029134;28;19915;-85
2023/12/21 13:05:01;;;;;;;;;;;9.70;99.90;;;;;;5046606;28;20383;-84
2023/12/21 13:07:27;;;;;;;;;;;9.70;99.90;;;;;;5046948;28;19940;-85
2023/12/21 13:09:52;;;;;;;;;;;9.70;99.90;;;;;;5046812;28;19913;-85
2023/12/21 13:12:18;;;;;;;;;;;9.70;99.90;;;;;;5046914;28;19909;-85
2023/12/21 13:14:44;;;;;;;;;;;9.80;99.90;;;;;;5028650;28;19909;-85
2023/12/21 13:17:12;;;;;;;;;;;9.80;99.90;;;;;;5028753;28;19915;-84
2023/12/21 13:19:38;;;;;;;;;;;9.80;99.90;;;;;;5028813;28;19936;-85
2023/12/21 13:22:04;;;;;;;;;;;9.90;99.90;;;;;;5027908;28;19951;-85
2023/12/21 13:24:29;;;;;;;;;;;9.80;99.90;;;;;;5047469;28;20173;-84
2023/12/21 13:26:55;;;;;;;;;;;9.80;99.90;;;;;;5046551;28;20384;-84
2023/12/21 13:29:20;;;;;;;;;;;9.80;99.90;;;;;;5045954;28;20436;-84
2023/12/21 13:31:46;;;;;;;;;;;9.90;99.90;;;;;;5029341;28;20027;-84
2023/12/21 13:34:11;;;;;;;;;;;9.90;99.90;;;;;;5048144;28;20774;-84
2023/12/21 13:36:37;;;;;;;;;;;10.00;99.90;;;;;;5047312;28;19915;-84
2023/12/21 13:39:02;;;;;;;;;;;10.00;99.90;;;;;;5047594;28;19915;-84
2023/12/21 13:41:28;;;;;;;;;;;10.00;99.90;;;;;;5031458;28;20392;-84
2023/12/21 13:43:54;;;;;;;;;;;10.00;99.90;;;;;;5031979;28;19958;-84
2023/12/21 13:46:21;;;;;;;;;;;10.00;99.90;;;;;;5049490;28;19912;-83
2023/12/21 13:48:47;;;;;;;;;;;10.00;99.90;;;;;;5027049;28;19936;-84
2023/12/21 13:51:12;;;;;;;;;;;10.00;99.90;;;;;;5049717;28;19912;-84
2023/12/21 13:53:38;;;;;;;;;;;10.00;99.90;;;;;;5049914;28;19909;-84
2023/12/21 13:56:04;;;;;;;;;;;10.10;99.90;;;;;;5065286;28;20351;-83
2023/12/21 13:58:29;;;;;;;;;;;10.10;99.90;;;;;;5048760;28;19913;-84
2023/12/21 14:00:55;;;;;;;;;;;10.10;99.90;;;;;;5049056;28;19909;-84
2023/12/21 14:03:20;;;;;;;;;;;10.10;99.90;;;;;;5049642;28;19940;-84
2023/12/21 14:05:46;;;;;;;;;;;10.10;99.90;;;;;;5049185;28;20693;-83
2023/12/21 14:08:12;;;;;;;;;;;10.10;99.90;;;;;;5049309;28;19920;-83
2023/12/21 14:10:37;;;;;;;;;;;10.10;99.90;;;;;;5031658;28;19962;-82
2023/12/21 14:13:03;;;;;;;;;;;10.10;99.90;;;;;;5031417;28;19909;-83
2023/12/21 14:15:29;;;;;;;;;;;10.10;99.90;;;;;;5048490;28;19908;-83
2023/12/21 14:17:55;;;;;;;;;;;10.10;99.90;;;;;;5049178;28;19905;-83
2023/12/21 14:20:23;;;;;;;;;;;10.10;99.90;;;;;;5031215;28;19996;-83
2023/12/21 14:22:52;;;;;;;;;;;10.10;99.90;;;;;;5050798;28;19909;-83
2023/12/21 14:25:18;;;;;;;;;;;10.10;99.90;;;;;;5048592;28;20558;-84
2023/12/21 14:27:45;;;;;;;;;;;10.10;99.90;;;;;;5049112;28;19992;-83
2023/12/21 14:30:11;;;;;;;;;;;10.10;99.90;;;;;;5048122;28;20771;-83
2023/12/21 14:32:36;;;;;;;;;;;10.20;99.90;;;;;;5030563;28;19925;-82
2023/12/21 14:35:03;;;;;;;;;;;10.20;99.90;;;;;;5048786;28;20406;-83